createdAt,value
2023-05-14T00:00:59.115Z,9.38
2023-05-14T00:03:25.881Z,9.27
2023-05-14T00:05:54.617Z,9.93
2023-05-14T00:08:21.067Z,10.32
2023-05-14T00:10:52.435Z,10.55
2023-05-14T00:13:18.949Z,10.05
2023-05-14T00:15:45.507Z,9.38
2023-05-14T00:18:12.396Z,10.63
2023-05-14T00:20:41.506Z,9.63
2023-05-14T00:23:08.028Z,9.90
2023-05-14T00:25:34.678Z,10.65
2023-05-14T00:28:01.139Z,10.02
2023-05-14T00:30:27.686Z,10.40
2023-05-14T00:32:54.219Z,9.43
2023-05-14T00:35:22.950Z,9.38
2023-05-14T00:37:49.454Z,9.73
2023-05-14T00:40:16.004Z,9.75
2023-05-14T00:42:42.459Z,9.90
2023-05-14T00:45:09.312Z,9.93
2023-05-14T00:47:36.527Z,10.30
2023-05-14T00:50:06.522Z,9.70
2023-05-14T00:52:35.369Z,10.45
2023-05-14T00:55:08.140Z,9.90
2023-05-14T00:57:37.635Z,9.18
2023-05-14T01:00:04.759Z,9.30
2023-05-14T01:02:33.474Z,9.70
2023-05-14T01:05:00.167Z,8.85
2023-05-14T01:07:54.691Z,8.95
2023-05-14T01:10:27.954Z,9.02
2023-05-14T01:13:14.931Z,9.05
2023-05-14T01:15:42.989Z,9.25
2023-05-14T01:20:42.176Z,8.70
2023-05-14T01:23:08.670Z,9.00
2023-05-14T01:25:35.396Z,9.32
2023-05-14T01:28:18.010Z,8.80
2023-05-14T01:30:54.166Z,8.20
2023-05-14T01:33:28.141Z,8.70
2023-05-14T01:35:58.559Z,8.68
2023-05-14T01:38:31.644Z,9.18
2023-05-14T01:41:00.064Z,8.55
2023-05-14T01:43:29.895Z,8.82
2023-05-14T01:45:56.553Z,9.30
2023-05-14T01:48:25.459Z,9.20
2023-05-14T01:50:54.231Z,9.20
2023-05-14T01:53:23.304Z,8.98
2023-05-14T01:55:49.731Z,8.48
2023-05-14T01:58:20.956Z,9.00
2023-05-14T02:00:49.685Z,9.07
2023-05-14T02:03:18.424Z,9.02
2023-05-14T02:05:47.376Z,9.00
2023-05-14T02:08:13.853Z,8.70
2023-05-14T02:10:40.384Z,8.73
2023-05-14T02:13:06.957Z,9.07
2023-05-14T02:15:33.444Z,8.93
2023-05-14T02:18:02.407Z,9.05
2023-05-14T02:20:28.945Z,8.77
2023-05-14T02:22:57.737Z,8.20
2023-05-14T02:25:26.817Z,9.07
2023-05-14T02:27:55.468Z,9.30
2023-05-14T02:30:24.434Z,8.80
2023-05-14T02:32:53.667Z,9.35
2023-05-14T02:35:20.198Z,9.38
2023-05-14T02:37:48.993Z,9.40
2023-05-14T02:40:20.452Z,8.65
2023-05-14T02:42:49.422Z,9.65
2023-05-14T02:45:16.160Z,8.75
2023-05-14T02:47:44.985Z,9.55
2023-05-14T02:50:11.558Z,9.73
2023-05-14T02:52:38.274Z,9.43
2023-05-14T02:55:07.578Z,9.82
2023-05-14T02:57:34.100Z,9.68
2023-05-14T03:00:00.543Z,9.45
2023-05-14T03:02:27.659Z,9.45
2023-05-14T03:04:54.482Z,9.82
2023-05-14T03:07:20.985Z,8.75
2023-05-14T03:09:47.454Z,9.73
2023-05-14T03:12:16.224Z,10.40
2023-05-14T03:14:44.959Z,9.10
2023-05-14T03:17:16.302Z,9.18
2023-05-14T03:19:45.117Z,9.48
2023-05-14T03:22:14.266Z,8.98
2023-05-14T03:24:40.904Z,9.50
2023-05-14T03:27:09.920Z,10.35
2023-05-14T03:29:36.371Z,9.40
2023-05-14T03:32:02.961Z,10.05
2023-05-14T03:34:31.696Z,9.52
2023-05-14T03:36:58.204Z,9.35
2023-05-14T03:39:24.789Z,9.38
2023-05-14T03:41:53.704Z,9.90
2023-05-14T03:44:22.617Z,10.52
2023-05-14T03:46:51.401Z,9.65
2023-05-14T03:49:17.959Z,10.15
2023-05-14T03:51:45.642Z,9.80
2023-05-14T03:54:14.334Z,10.15
2023-05-14T03:56:40.783Z,10.20
2023-05-14T03:59:12.149Z,10.27
2023-05-14T04:01:38.618Z,10.05
2023-05-14T04:04:05.137Z,9.50
2023-05-14T04:06:35.496Z,10.30
2023-05-14T04:09:04.450Z,10.25
2023-05-14T04:11:30.902Z,10.30
2023-05-14T04:13:59.962Z,9.65
2023-05-14T04:16:26.519Z,10.18
2023-05-14T04:18:55.493Z,10.02
2023-05-14T04:21:22.019Z,10.23
2023-05-14T04:23:48.549Z,9.32
2023-05-14T04:26:17.206Z,9.88
2023-05-14T04:28:45.746Z,10.05
2023-05-14T04:31:15.540Z,9.13
2023-05-14T04:33:44.225Z,9.48
2023-05-14T04:36:10.711Z,9.70
2023-05-14T04:38:37.143Z,9.50
2023-05-14T04:41:03.731Z,9.75
2023-05-14T04:43:32.544Z,10.02
2023-05-14T04:45:59.057Z,9.48
2023-05-14T04:48:30.200Z,9.50
2023-05-14T04:50:56.664Z,9.88
2023-05-14T04:53:25.593Z,9.82
2023-05-14T04:55:52.154Z,9.23
2023-05-14T04:58:20.949Z,9.18
2023-05-14T05:00:50.066Z,8.52
2023-05-14T05:03:18.779Z,9.00
2023-05-14T05:05:47.895Z,8.68
2023-05-14T05:08:14.354Z,8.43
2023-05-14T05:10:43.905Z,8.50
2023-05-14T05:13:10.420Z,8.60
2023-05-14T05:15:36.902Z,7.80
2023-05-14T05:18:06.493Z,7.63
2023-05-14T05:20:33.055Z,7.20
2023-05-14T05:22:59.551Z,7.60
2023-05-14T05:25:28.245Z,7.57
2023-05-14T05:27:59.618Z,7.18
2023-05-14T05:30:28.495Z,8.10
2023-05-14T05:32:57.650Z,7.32
2023-05-14T05:35:29.042Z,7.32
2023-05-14T05:37:55.771Z,7.07
2023-05-14T05:40:22.455Z,7.03
2023-05-14T05:42:49.019Z,7.25
2023-05-14T05:45:17.700Z,7.43
2023-05-14T05:47:44.256Z,7.53
2023-05-14T05:50:11.105Z,8.07
2023-05-14T05:52:37.914Z,8.02
2023-05-14T05:55:07.209Z,7.70
2023-05-14T05:57:33.840Z,7.47
2023-05-14T06:00:09.859Z,7.63
2023-05-14T06:02:36.361Z,8.05
2023-05-14T06:05:03.024Z,8.27
2023-05-14T06:07:32.023Z,7.20
2023-05-14T06:09:58.459Z,8.30
2023-05-14T06:12:24.909Z,7.93
2023-05-14T06:14:55.531Z,7.60
2023-05-14T06:17:24.505Z,7.05
2023-05-14T06:19:52.160Z,7.55
2023-05-14T06:22:18.946Z,7.05
2023-05-14T06:24:47.806Z,7.00
2023-05-14T06:27:16.634Z,7.53
2023-05-14T06:29:43.118Z,7.00
2023-05-14T06:32:10.314Z,7.00
2023-05-14T06:34:36.958Z,6.32
2023-05-14T06:37:06.990Z,7.30
2023-05-14T06:39:33.499Z,7.18
2023-05-14T06:42:05.192Z,7.07
2023-05-14T06:44:34.236Z,6.80
2023-05-14T06:47:00.783Z,6.82
2023-05-14T06:49:27.235Z,6.60
2023-05-14T06:51:56.100Z,6.70
2023-05-14T06:54:22.706Z,6.40
2023-05-14T06:56:49.225Z,6.15
2023-05-14T06:59:17.981Z,5.95
2023-05-14T07:01:44.464Z,6.20
2023-05-14T07:04:11.068Z,6.10
2023-05-14T07:06:37.683Z,5.63
2023-05-14T07:09:07.671Z,5.72
2023-05-14T07:11:36.643Z,5.78
2023-05-14T07:14:03.090Z,5.70
2023-05-14T07:16:29.623Z,5.72
2023-05-14T07:18:58.427Z,5.45
2023-05-14T07:21:24.980Z,5.55
2023-05-14T07:23:53.795Z,5.03
2023-05-14T07:26:21.373Z,5.38
2023-05-14T07:28:47.844Z,6.03
2023-05-14T07:31:16.659Z,5.68
2023-05-14T07:33:45.965Z,5.07
2023-05-14T07:36:12.573Z,5.28
2023-05-14T07:38:39.150Z,5.40
2023-05-14T07:41:07.930Z,5.30
2023-05-14T07:43:38.443Z,5.15
2023-05-14T07:46:04.920Z,5.25
2023-05-14T07:48:35.327Z,5.55
2023-05-14T07:51:01.864Z,5.47
2023-05-14T07:53:32.960Z,5.63
2023-05-14T07:56:00.179Z,5.57
2023-05-14T07:58:28.011Z,5.38
2023-05-14T08:00:57.696Z,5.38
2023-05-14T08:03:24.349Z,5.60
2023-05-14T08:05:52.495Z,5.50
2023-05-14T08:08:19.025Z,6.20
2023-05-14T08:10:45.698Z,5.60
2023-05-14T08:13:15.296Z,5.33
2023-05-14T08:15:41.810Z,5.40
2023-05-14T08:18:08.334Z,5.78
2023-05-14T08:20:34.878Z,6.05
2023-05-14T08:23:07.289Z,5.10
2023-05-14T08:25:36.035Z,5.45
2023-05-14T08:28:04.897Z,5.45
2023-05-14T08:30:33.781Z,5.40
2023-05-14T08:33:00.613Z,5.00
2023-05-14T08:35:29.496Z,5.23
2023-05-14T08:37:57.096Z,6.00
2023-05-14T08:40:25.185Z,5.60
2023-05-14T08:42:52.908Z,5.53
2023-05-14T08:47:53.738Z,5.63
2023-05-14T08:50:22.861Z,5.40
2023-05-14T08:52:52.494Z,5.43
2023-05-14T08:55:19.846Z,5.30
2023-05-14T08:57:46.470Z,5.20
2023-05-14T09:00:14.255Z,5.30
2023-05-14T09:02:44.215Z,5.43
2023-05-14T09:05:10.852Z,5.18
2023-05-14T09:07:39.892Z,5.70
2023-05-14T09:10:08.945Z,5.57
2023-05-14T09:12:35.529Z,6.13
2023-05-14T09:15:02.072Z,5.50
2023-05-14T09:17:28.819Z,5.47
2023-05-14T09:19:56.129Z,5.30
2023-05-14T09:22:24.939Z,5.68
2023-05-14T09:25:05.823Z,5.68
2023-05-14T09:27:34.908Z,5.32
2023-05-14T09:30:12.480Z,5.50
2023-05-14T09:32:44.248Z,5.22
2023-05-14T09:35:13.193Z,5.60
2023-05-14T09:37:42.734Z,5.15
2023-05-14T09:40:10.517Z,4.97
2023-05-14T09:42:37.037Z,5.25
2023-05-14T09:45:06.304Z,4.70
2023-05-14T09:47:32.960Z,4.78
2023-05-14T09:50:05.086Z,4.73
2023-05-14T09:52:31.719Z,4.35
2023-05-14T09:54:58.484Z,5.13
2023-05-14T09:57:25.111Z,5.23
2023-05-14T09:59:51.634Z,4.40
2023-05-14T10:02:23.121Z,4.90
2023-05-14T10:05:02.558Z,5.10
2023-05-14T10:07:35.931Z,5.20
2023-05-14T10:10:07.104Z,5.15
2023-05-14T10:12:41.113Z,4.53
2023-05-14T10:15:24.452Z,4.95
2023-05-14T10:18:00.375Z,4.93
2023-05-14T10:20:30.212Z,4.47
2023-05-14T10:22:59.449Z,5.53
2023-05-14T10:25:28.263Z,5.57
2023-05-14T10:27:55.383Z,4.70
2023-05-14T10:30:29.203Z,4.97
2023-05-14T10:33:12.488Z,5.00
2023-05-14T10:36:01.917Z,4.80
2023-05-14T10:38:38.174Z,5.03
2023-05-14T10:41:12.269Z,5.03
2023-05-14T10:43:40.538Z,7.10
2023-05-14T10:46:09.766Z,4.90
2023-05-14T10:48:41.844Z,5.15
2023-05-14T10:51:12.358Z,5.03
2023-05-14T10:53:46.793Z,4.90
2023-05-14T10:56:14.600Z,5.20
2023-05-14T10:58:45.160Z,4.45
2023-05-14T11:01:15.605Z,4.70
2023-05-14T11:03:46.836Z,4.72
2023-05-14T11:06:20.735Z,4.63
2023-05-14T11:08:50.026Z,4.55
2023-05-14T11:11:19.170Z,5.40
2023-05-14T11:13:46.180Z,4.65
2023-05-14T11:16:23.397Z,4.80
2023-05-14T11:19:00.826Z,5.13
2023-05-14T11:21:32.502Z,4.70
2023-05-14T11:24:02.178Z,4.57
2023-05-14T11:26:28.757Z,4.38
2023-05-14T11:28:55.702Z,4.00
2023-05-14T11:31:23.302Z,4.35
2023-05-14T11:33:51.757Z,4.65
2023-05-14T11:36:18.203Z,4.47
2023-05-14T11:38:49.015Z,4.32
2023-05-14T11:41:17.913Z,3.97
2023-05-14T11:43:46.673Z,4.30
2023-05-14T11:46:20.207Z,4.25
2023-05-14T11:48:49.112Z,4.45
2023-05-14T11:51:15.589Z,4.40
2023-05-14T11:53:42.162Z,4.20
2023-05-14T11:56:09.986Z,4.37
2023-05-14T11:58:38.857Z,3.83
2023-05-14T12:01:07.689Z,4.55
2023-05-14T12:03:37.385Z,4.53
2023-05-14T12:06:07.357Z,4.22
2023-05-14T12:08:37.293Z,4.50
2023-05-14T12:11:06.614Z,4.30
2023-05-14T12:13:33.246Z,4.35
2023-05-14T12:16:04.090Z,4.00
2023-05-14T12:18:33.737Z,4.13
2023-05-14T12:21:04.487Z,4.72
2023-05-14T12:23:32.149Z,4.50
2023-05-14T12:26:06.528Z,4.15
2023-05-14T12:28:35.417Z,4.18
2023-05-14T12:31:03.660Z,4.00
2023-05-14T12:33:30.565Z,4.20
2023-05-14T12:36:14.084Z,3.97
2023-05-14T12:38:51.379Z,5.07
2023-05-14T12:41:18.993Z,3.60
2023-05-14T12:43:48.547Z,4.53
2023-05-14T12:46:17.791Z,4.00
2023-05-14T12:48:46.693Z,4.00
2023-05-14T12:51:13.464Z,4.03
2023-05-14T12:53:39.967Z,3.67
2023-05-14T12:56:07.044Z,3.57
2023-05-14T12:58:35.915Z,3.97
2023-05-14T13:01:02.594Z,3.90
2023-05-14T13:03:31.400Z,4.40
2023-05-14T13:05:58.158Z,3.72
2023-05-14T13:08:26.659Z,5.00
2023-05-14T13:10:54.389Z,3.75
2023-05-14T13:13:21.046Z,3.83
2023-05-14T13:15:49.820Z,3.92
2023-05-14T13:18:17.631Z,3.40
2023-05-14T13:20:46.605Z,3.75
2023-05-14T13:23:15.650Z,3.83
2023-05-14T13:25:42.240Z,3.45
2023-05-14T13:28:11.282Z,3.53
2023-05-14T13:30:37.941Z,3.60
2023-05-14T13:33:05.416Z,4.30
2023-05-14T13:35:34.687Z,3.60
2023-05-14T13:38:01.283Z,3.28
2023-05-14T13:40:27.757Z,3.80
2023-05-14T13:42:56.514Z,3.92
2023-05-14T13:45:25.380Z,3.17
2023-05-14T13:47:52.014Z,3.08
2023-05-14T13:50:22.236Z,3.33
2023-05-14T13:52:53.539Z,4.88
2023-05-14T13:55:22.515Z,3.42
2023-05-14T13:57:49.283Z,4.13
2023-05-14T14:00:18.420Z,3.73
2023-05-14T14:02:44.870Z,3.72
2023-05-14T14:05:11.462Z,4.38
2023-05-14T14:07:39.614Z,3.53
2023-05-14T14:10:06.789Z,3.45
2023-05-14T14:12:33.534Z,3.53
2023-05-14T14:15:01.119Z,3.45
2023-05-14T14:17:27.569Z,3.22
2023-05-14T14:19:54.042Z,4.28
2023-05-14T14:24:51.823Z,3.50
2023-05-14T14:27:18.262Z,4.40
2023-05-14T14:29:47.019Z,3.55
2023-05-14T14:32:16.061Z,3.53
2023-05-14T14:34:44.692Z,3.90
2023-05-14T14:37:13.485Z,3.65
2023-05-14T14:39:40.377Z,3.72
2023-05-14T14:42:07.358Z,3.53
2023-05-14T14:44:36.305Z,3.47
2023-05-14T14:47:05.214Z,3.85
2023-05-14T14:49:34.203Z,3.65
2023-05-14T14:52:00.691Z,3.92
2023-05-14T14:54:27.205Z,3.50
2023-05-14T14:56:56.305Z,3.40
2023-05-14T14:59:23.022Z,3.72
2023-05-14T15:01:51.872Z,3.35
2023-05-14T15:04:21.644Z,3.88
2023-05-14T15:06:48.305Z,3.78
2023-05-14T15:09:17.112Z,3.27
2023-05-14T15:11:44.538Z,3.72
2023-05-14T15:16:37.384Z,4.00
2023-05-14T15:19:03.999Z,4.22
2023-05-14T15:21:30.609Z,3.40
2023-05-14T15:23:57.071Z,3.65
2023-05-14T15:26:26.640Z,4.50
2023-05-14T15:28:53.189Z,3.65
2023-05-14T15:31:22.716Z,4.00
2023-05-14T15:33:53.013Z,3.35
2023-05-14T15:36:19.601Z,3.40
2023-05-14T15:38:46.112Z,3.22
2023-05-14T15:41:12.640Z,3.55
2023-05-14T15:43:41.624Z,3.30
2023-05-14T15:46:08.123Z,4.68
2023-05-14T15:48:35.065Z,4.05
2023-05-14T15:51:02.348Z,3.70
2023-05-14T15:53:31.066Z,3.70
2023-05-14T15:55:57.585Z,3.85
2023-05-14T15:58:24.055Z,3.47
2023-05-14T16:00:50.585Z,4.57
2023-05-14T16:03:17.498Z,4.10
2023-05-14T16:05:44.813Z,4.40
2023-05-14T16:08:11.562Z,4.30
2023-05-14T16:10:38.786Z,3.83
2023-05-14T16:13:09.753Z,3.58
2023-05-14T16:15:36.296Z,4.03
2023-05-14T16:18:02.865Z,4.03
2023-05-14T16:20:31.631Z,3.95
2023-05-14T16:22:58.238Z,4.40
2023-05-14T16:25:26.910Z,4.50
2023-05-14T16:27:53.444Z,4.15
2023-05-14T16:30:19.900Z,4.20
2023-05-14T16:32:49.601Z,3.40
2023-05-14T16:35:21.117Z,4.03
2023-05-14T16:37:47.549Z,4.15
2023-05-14T16:40:16.008Z,4.05
2023-05-14T16:42:42.551Z,4.05
2023-05-14T16:45:09.485Z,4.05
2023-05-14T16:47:40.756Z,3.78
2023-05-14T16:50:08.251Z,4.03
2023-05-14T16:52:39.275Z,4.05
2023-05-14T16:55:06.619Z,4.20
2023-05-14T16:57:34.259Z,4.60
2023-05-14T17:02:29.607Z,4.40
2023-05-14T17:04:56.385Z,4.53
2023-05-14T17:07:23.085Z,4.30
2023-05-14T17:09:49.590Z,5.03
2023-05-14T17:12:16.157Z,4.50
2023-05-14T17:14:42.654Z,4.57
2023-05-14T17:17:09.318Z,4.00
2023-05-14T17:19:38.257Z,4.25
2023-05-14T17:22:05.916Z,4.50
2023-05-14T17:27:01.759Z,5.25
2023-05-14T17:29:30.668Z,4.95
2023-05-14T17:32:00.329Z,5.30
2023-05-14T17:34:29.215Z,6.20
2023-05-14T17:36:58.084Z,6.07
2023-05-14T17:39:24.667Z,5.65
2023-05-14T17:41:51.258Z,6.00
2023-05-14T17:44:19.974Z,6.75
2023-05-14T17:46:46.835Z,5.82
2023-05-14T17:49:15.743Z,6.17
2023-05-14T17:51:46.827Z,6.15
2023-05-14T17:54:15.879Z,6.53
2023-05-14T17:56:42.496Z,5.95
2023-05-14T17:59:08.997Z,6.68
2023-05-14T18:01:35.562Z,6.68
2023-05-14T18:04:02.208Z,6.55
2023-05-14T18:06:33.552Z,6.30
2023-05-14T18:09:02.298Z,5.20
2023-05-14T18:11:33.889Z,5.18
2023-05-14T18:14:03.709Z,5.13
2023-05-14T18:16:30.786Z,4.63
2023-05-14T18:19:02.409Z,4.05
2023-05-14T18:21:28.972Z,4.75
2023-05-14T18:23:55.535Z,3.72
2023-05-14T18:26:26.824Z,4.00
2023-05-14T18:28:55.440Z,3.67
2023-05-14T18:31:22.104Z,4.07
2023-05-14T18:33:51.427Z,4.22
2023-05-14T18:36:20.413Z,3.95
2023-05-14T18:38:49.382Z,4.00
2023-05-14T18:41:15.875Z,4.03
2023-05-14T18:43:42.337Z,3.70
2023-05-14T18:46:08.953Z,3.95
2023-05-14T18:48:35.544Z,4.32
2023-05-14T18:51:02.085Z,4.20
2023-05-14T18:53:29.282Z,4.07
2023-05-14T18:55:56.225Z,4.00
2023-05-14T18:58:27.274Z,4.00
2023-05-14T19:00:58.964Z,4.00
2023-05-14T19:03:26.032Z,4.22
2023-05-14T19:05:57.689Z,4.18
2023-05-14T19:08:24.178Z,4.35
2023-05-14T19:10:52.991Z,4.25
2023-05-14T19:13:22.016Z,4.10
2023-05-14T19:15:48.506Z,4.32
2023-05-14T19:18:19.788Z,4.90
2023-05-14T19:20:48.664Z,4.57
2023-05-14T19:23:17.513Z,4.15
2023-05-14T19:25:46.262Z,4.63
2023-05-14T19:28:15.329Z,4.50
2023-05-14T19:30:41.830Z,4.43
2023-05-14T19:33:10.509Z,4.32
2023-05-14T19:35:39.430Z,4.10
2023-05-14T19:38:10.190Z,4.30
2023-05-14T19:40:36.957Z,4.30
2023-05-14T19:43:03.432Z,4.43
2023-05-14T19:45:39.022Z,4.95
2023-05-14T19:48:06.465Z,4.90
2023-05-14T19:50:33.419Z,5.15
2023-05-14T19:53:02.529Z,5.50
2023-05-14T19:55:31.932Z,5.25
2023-05-14T19:58:03.207Z,5.30
2023-05-14T20:00:32.131Z,5.40
2023-05-14T20:02:59.544Z,5.40
2023-05-14T20:05:26.905Z,5.47
2023-05-14T20:07:56.169Z,5.40
2023-05-14T20:10:23.490Z,6.40
2023-05-14T20:12:50.204Z,6.30
2023-05-14T20:15:16.853Z,5.75
2023-05-14T20:17:46.195Z,5.97
2023-05-14T20:20:12.685Z,5.90
2023-05-14T20:22:42.792Z,5.93
2023-05-14T20:25:10.082Z,6.40
2023-05-14T20:27:36.887Z,6.30
2023-05-14T20:30:06.433Z,6.72
2023-05-14T20:32:33.088Z,6.22
2023-05-14T20:35:02.908Z,6.13
2023-05-14T20:37:34.873Z,6.75
2023-05-14T20:40:06.088Z,6.85
2023-05-14T20:42:32.721Z,6.55
2023-05-14T20:44:59.233Z,6.90
2023-05-14T20:47:26.710Z,6.15
2023-05-14T20:49:53.310Z,7.50
2023-05-14T20:52:19.846Z,6.68
2023-05-14T20:54:46.480Z,7.05
2023-05-14T20:57:18.374Z,7.15
2023-05-14T20:59:48.920Z,7.13
2023-05-14T21:02:18.082Z,7.20
2023-05-14T21:04:49.315Z,7.30
2023-05-14T21:07:18.335Z,7.40
2023-05-14T21:09:50.706Z,7.13
2023-05-14T21:12:19.571Z,7.60
2023-05-14T21:14:50.933Z,7.60
2023-05-14T21:17:19.955Z,7.13
2023-05-14T21:19:46.407Z,7.38
2023-05-14T21:22:13.090Z,7.80
2023-05-14T21:24:39.552Z,7.18
2023-05-14T21:27:08.455Z,8.18
2023-05-14T21:29:34.964Z,7.97
2023-05-14T21:32:03.949Z,7.90
2023-05-14T21:34:32.002Z,7.85
2023-05-14T21:36:59.008Z,7.82
2023-05-14T21:39:27.895Z,7.68
2023-05-14T21:41:54.329Z,7.80
2023-05-14T21:44:23.681Z,8.00
2023-05-14T21:46:52.689Z,8.30
2023-05-14T21:49:21.555Z,8.77
2023-05-14T21:51:52.896Z,8.63
2023-05-14T21:54:22.003Z,7.82
2023-05-14T21:56:51.095Z,8.07
2023-05-14T21:59:17.536Z,8.35
2023-05-14T22:02:05.537Z,8.40
2023-05-14T22:04:35.535Z,7.90
2023-05-14T22:07:04.681Z,8.15
2023-05-14T22:09:36.305Z,7.65
2023-05-14T22:12:06.249Z,8.05
2023-05-14T22:14:32.949Z,7.88
2023-05-14T22:16:59.589Z,8.35
2023-05-14T22:19:31.056Z,8.05
2023-05-14T22:21:59.937Z,8.77
2023-05-14T22:24:26.428Z,7.68
2023-05-14T22:26:52.935Z,8.57
2023-05-14T22:29:21.900Z,8.45
2023-05-14T22:31:50.815Z,8.18
2023-05-14T22:34:19.923Z,8.00
2023-05-14T22:36:46.392Z,8.77
2023-05-14T22:39:15.433Z,9.02
2023-05-14T22:41:41.921Z,8.15
2023-05-14T22:44:08.465Z,8.00
2023-05-14T22:46:37.426Z,8.88
2023-05-14T22:49:04.027Z,8.35
2023-05-14T22:51:33.077Z,8.23
2023-05-14T22:54:01.654Z,8.82
2023-05-14T22:56:28.365Z,8.40
2023-05-14T22:58:54.797Z,8.02
2023-05-14T23:01:26.137Z,8.15
2023-05-14T23:03:55.247Z,8.27
2023-05-14T23:06:24.236Z,8.20
2023-05-14T23:08:50.800Z,7.97
2023-05-14T23:11:17.263Z,8.55
2023-05-14T23:13:43.709Z,8.57
2023-05-14T23:16:12.706Z,7.82
2023-05-14T23:18:41.509Z,8.40
2023-05-14T23:21:10.130Z,8.40
2023-05-14T23:23:36.694Z,8.35
2023-05-14T23:26:03.365Z,8.63
2023-05-14T23:28:32.284Z,8.75
2023-05-14T23:31:01.269Z,8.70
2023-05-14T23:33:27.825Z,8.75
2023-05-14T23:35:54.382Z,8.00
2023-05-14T23:38:21.266Z,7.85
2023-05-14T23:40:50.175Z,8.25
2023-05-14T23:43:16.958Z,8.15
2023-05-14T23:45:43.491Z,8.40
2023-05-14T23:48:10.004Z,8.10
2023-05-14T23:50:41.304Z,8.38
2023-05-14T23:53:07.897Z,8.50
2023-05-14T23:55:34.449Z,8.05
2023-05-14T23:58:00.963Z,8.02
